createdAt,value
2019-05-01T00:01:24.129Z,15.17
2019-05-01T00:04:12.609Z,15.10
2019-05-01T00:06:48.883Z,13.53
2019-05-01T00:09:19.275Z,14.23
2019-05-01T00:11:51.601Z,13.30
2019-05-01T00:14:24.011Z,10.37
2019-05-01T00:16:54.611Z,11.03
2019-05-01T00:19:25.137Z,11.60
2019-05-01T00:21:56.713Z,11.48
2019-05-01T00:24:27.422Z,12.82
2019-05-01T00:26:57.862Z,12.83
2019-05-01T00:29:28.235Z,12.65
2019-05-01T00:31:58.593Z,12.20
2019-05-01T00:34:29.008Z,13.67
2019-05-01T00:36:59.475Z,12.23
2019-05-01T00:39:30.223Z,14.30
2019-05-01T00:42:01.269Z,15.00
2019-05-01T00:44:31.579Z,13.17
2019-05-01T00:47:01.900Z,13.20
2019-05-01T00:49:32.306Z,13.27
2019-05-01T00:52:03.035Z,10.63
2019-05-01T00:54:36.041Z,11.95
2019-05-01T00:57:34.528Z,10.78
2019-05-01T01:00:25.993Z,12.20
2019-05-01T01:02:57.195Z,10.97
2019-05-01T01:05:27.777Z,12.80
2019-05-01T01:07:58.092Z,10.33
2019-05-01T01:10:28.520Z,13.93
2019-05-01T01:13:01.732Z,9.43
2019-05-01T01:15:32.157Z,12.58
2019-05-01T01:18:02.494Z,13.10
2019-05-01T01:20:32.843Z,11.43
2019-05-01T01:23:22.285Z,10.35
2019-05-01T01:25:53.699Z,8.63
2019-05-01T01:28:24.578Z,16.97
2019-05-01T01:30:56.482Z,14.47
2019-05-01T01:33:27.203Z,10.72
2019-05-01T01:35:57.595Z,12.60
2019-05-01T01:38:28.981Z,9.03
2019-05-01T01:40:59.720Z,11.60
2019-05-01T01:43:47.037Z,13.13
2019-05-01T01:46:19.413Z,13.00
2019-05-01T01:48:49.725Z,12.03
2019-05-01T01:51:20.145Z,13.13
2019-05-01T01:53:52.217Z,11.43
2019-05-01T01:56:22.902Z,14.58
2019-05-01T01:58:53.749Z,13.98
2019-05-01T02:01:43.453Z,13.20
2019-05-01T02:04:33.377Z,11.05
2019-05-01T02:07:03.891Z,11.78
2019-05-01T02:09:34.293Z,14.78
2019-05-01T02:12:04.611Z,13.10
2019-05-01T02:14:35.216Z,9.38
2019-05-01T02:17:05.517Z,11.63
2019-05-01T02:19:35.803Z,11.95
2019-05-01T02:22:06.140Z,13.18
2019-05-01T02:24:37.353Z,11.18
2019-05-01T02:27:12.659Z,14.83
2019-05-01T02:29:48.481Z,9.75
2019-05-01T02:32:20.524Z,10.78
2019-05-01T02:34:52.289Z,13.25
2019-05-01T02:37:25.215Z,8.83
2019-05-01T02:39:57.429Z,11.22
2019-05-01T02:42:31.260Z,8.83
2019-05-01T02:45:04.336Z,8.93
2019-05-01T02:47:37.591Z,10.60
2019-05-01T02:50:10.437Z,10.03
2019-05-01T02:52:43.297Z,8.45
2019-05-01T02:55:38.220Z,10.72
2019-05-01T02:58:09.264Z,9.68
2019-05-01T03:00:39.856Z,10.30
2019-05-01T03:03:10.599Z,11.55
2019-05-01T03:05:40.992Z,12.75
2019-05-01T03:08:11.405Z,9.03
2019-05-01T03:10:41.827Z,8.88
2019-05-01T03:13:12.163Z,9.60
2019-05-01T03:15:42.704Z,8.40
2019-05-01T03:18:28.157Z,11.73
2019-05-01T03:21:07.446Z,11.63
2019-05-01T03:23:57.328Z,13.95
2019-05-01T03:26:27.779Z,13.20
2019-05-01T03:28:58.160Z,10.63
2019-05-01T03:31:28.693Z,11.10
2019-05-01T03:34:00.093Z,8.33
2019-05-01T03:36:30.709Z,10.13
2019-05-01T03:39:01.344Z,8.18
2019-05-01T03:41:33.277Z,9.18
2019-05-01T03:44:04.794Z,7.00
2019-05-01T03:46:37.346Z,7.17
2019-05-01T03:49:07.742Z,10.23
2019-05-01T03:51:38.236Z,7.67
2019-05-01T03:54:09.064Z,7.58
2019-05-01T03:56:39.628Z,9.60
2019-05-01T03:59:10.468Z,6.62
2019-05-01T04:02:12.378Z,6.92
2019-05-01T04:04:42.978Z,9.00
2019-05-01T04:07:13.423Z,9.10
2019-05-01T04:09:43.769Z,9.33
2019-05-01T04:12:14.156Z,5.58
2019-05-01T04:14:44.671Z,9.18
2019-05-01T04:17:33.716Z,8.38
2019-05-01T04:20:04.140Z,8.70
2019-05-01T04:22:34.446Z,8.13
2019-05-01T04:25:05.188Z,10.58
2019-05-01T04:27:38.166Z,6.40
2019-05-01T04:30:16.343Z,7.60
2019-05-01T04:32:52.518Z,6.65
2019-05-01T04:35:37.696Z,7.65
2019-05-01T04:38:08.131Z,10.70
2019-05-01T04:40:38.699Z,6.17
2019-05-01T04:43:09.011Z,7.65
2019-05-01T04:45:39.342Z,9.63
2019-05-01T04:48:10.859Z,7.72
2019-05-01T04:50:42.041Z,7.78
2019-05-01T04:53:12.463Z,6.20
2019-05-01T04:55:42.851Z,7.12
2019-05-01T04:58:20.710Z,9.05
2019-05-01T05:00:51.101Z,7.12
2019-05-01T05:03:23.363Z,7.50
2019-05-01T05:05:53.858Z,5.92
2019-05-01T05:08:24.160Z,8.70
2019-05-01T05:10:56.444Z,9.63
2019-05-01T05:13:34.334Z,5.65
2019-05-01T05:16:20.405Z,7.95
2019-05-01T05:18:51.015Z,7.95
2019-05-01T05:21:21.327Z,7.87
2019-05-01T05:23:51.933Z,7.12
2019-05-01T05:26:22.514Z,7.10
2019-05-01T05:28:53.266Z,9.80
2019-05-01T05:31:26.665Z,7.55
2019-05-01T05:33:59.787Z,6.90
2019-05-01T05:36:32.043Z,7.40
2019-05-01T05:39:16.446Z,5.93
2019-05-01T05:41:48.665Z,7.60
2019-05-01T05:44:19.068Z,8.53
2019-05-01T05:46:50.459Z,8.45
2019-05-01T05:49:22.645Z,8.48
2019-05-01T05:52:00.240Z,6.33
2019-05-01T05:54:56.713Z,6.73
2019-05-01T05:57:44.358Z,6.37
2019-05-01T06:00:29.278Z,8.75
2019-05-01T06:03:10.790Z,7.13
2019-05-01T06:06:06.323Z,6.70
2019-05-01T06:08:39.753Z,5.70
2019-05-01T06:11:20.225Z,7.00
2019-05-01T06:14:02.023Z,7.80
2019-05-01T06:17:04.834Z,6.80
2019-05-01T06:20:08.213Z,7.47
2019-05-01T06:22:58.160Z,5.90
2019-05-01T06:25:32.906Z,7.90
2019-05-01T06:28:03.265Z,7.60
2019-05-01T06:30:34.901Z,6.63
2019-05-01T06:33:09.510Z,7.83
2019-05-01T06:35:39.402Z,7.10
2019-05-01T06:38:14.051Z,5.37
2019-05-01T06:40:45.955Z,6.23
2019-05-01T06:43:57.008Z,8.37
2019-05-01T06:46:31.814Z,8.40
2019-05-01T06:49:16.210Z,6.60
2019-05-01T06:51:53.149Z,7.10
2019-05-01T06:54:25.775Z,6.87
2019-05-01T06:56:57.229Z,6.53
2019-05-01T06:59:31.487Z,8.10
2019-05-01T07:02:01.889Z,7.47
2019-05-01T07:04:37.926Z,6.33
2019-05-01T07:07:09.836Z,7.53
2019-05-01T07:09:39.213Z,6.90
2019-05-01T07:12:14.666Z,6.43
2019-05-01T07:14:47.079Z,6.10
2019-05-01T07:17:17.671Z,5.87
2019-05-01T07:19:55.505Z,4.87
2019-05-01T07:22:27.520Z,9.07
2019-05-01T07:24:59.013Z,6.77
2019-05-01T07:27:30.951Z,7.90
2019-05-01T07:30:09.599Z,6.57
2019-05-01T07:32:42.798Z,8.40
2019-05-01T07:35:13.291Z,4.90
2019-05-01T07:37:44.366Z,5.90
2019-05-01T07:40:14.789Z,5.50
2019-05-01T07:42:48.188Z,6.87
2019-05-01T07:45:39.094Z,7.90
2019-05-01T07:48:07.783Z,7.70
2019-05-01T07:50:39.411Z,6.80
2019-05-01T07:53:09.801Z,6.50
2019-05-01T07:55:40.474Z,7.77
2019-05-01T07:58:16.005Z,9.37
2019-05-01T08:00:53.815Z,7.90
2019-05-01T08:03:24.189Z,6.20
2019-05-01T08:05:54.493Z,8.83
2019-05-01T08:08:24.865Z,8.17
2019-05-01T08:10:55.161Z,8.03
2019-05-01T08:13:25.524Z,6.60
2019-05-01T08:16:15.580Z,7.50
2019-05-01T08:18:58.968Z,7.23
2019-05-01T08:21:48.499Z,7.63
2019-05-01T08:24:23.044Z,8.90
2019-05-01T08:26:50.920Z,6.83
2019-05-01T08:48:57.435Z,8.27
2019-05-01T09:10:28.403Z,8.53
2019-05-01T09:15:57.976Z,8.20
2019-05-01T09:24:52.917Z,7.50
2019-05-01T09:27:43.022Z,5.83
2019-05-01T09:30:21.713Z,8.53
2019-05-01T09:32:54.645Z,7.80
2019-05-01T09:35:25.137Z,8.70
2019-05-01T09:37:55.579Z,7.63
2019-05-01T09:40:27.028Z,8.20
2019-05-01T09:42:59.484Z,6.00
2019-05-01T09:45:29.715Z,6.97
2019-05-01T09:48:00.023Z,6.90
2019-05-01T09:50:32.027Z,7.30
2019-05-01T09:53:12.985Z,6.83
2019-05-01T09:55:55.912Z,7.03
2019-05-01T09:58:26.259Z,5.90
2019-05-01T10:00:59.286Z,7.03
2019-05-01T10:03:29.724Z,7.10
2019-05-01T10:06:00.061Z,8.00
2019-05-01T10:08:30.377Z,7.00
2019-05-01T10:11:05.212Z,7.73
2019-05-01T10:13:33.021Z,7.57
2019-05-01T10:16:03.392Z,7.03
2019-05-01T10:18:35.443Z,6.83
2019-05-01T10:21:05.786Z,7.00
2019-05-01T10:23:36.095Z,6.87
2019-05-01T10:29:21.418Z,6.43
2019-05-01T10:32:17.037Z,7.47
2019-05-01T10:37:41.656Z,6.37
2019-05-01T10:40:12.122Z,6.27
2019-05-01T10:42:42.431Z,8.27
2019-05-01T10:45:12.979Z,7.20
2019-05-01T10:47:43.272Z,6.57
2019-05-01T10:50:13.707Z,6.80
2019-05-01T10:52:44.020Z,6.60
2019-05-01T10:55:14.338Z,6.33
2019-05-01T10:57:44.671Z,6.57
2019-05-01T11:00:15.183Z,5.73
2019-05-01T11:02:45.578Z,5.77
2019-05-01T11:05:34.996Z,6.33
2019-05-01T11:08:24.214Z,6.37
2019-05-01T11:10:54.578Z,5.20
2019-05-01T11:13:24.860Z,6.53
2019-05-01T11:15:55.340Z,7.40
2019-05-01T11:18:25.707Z,5.67
2019-05-01T11:23:55.506Z,5.80
2019-05-01T11:26:25.865Z,5.73
2019-05-01T11:28:56.240Z,6.90
2019-05-01T11:31:33.000Z,6.53
2019-05-01T11:34:17.759Z,7.07
2019-05-01T11:37:07.652Z,7.47
2019-05-01T11:39:42.150Z,5.93
2019-05-01T11:45:12.744Z,7.60
2019-05-01T11:47:43.087Z,8.43
2019-05-01T11:50:13.423Z,6.17
2019-05-01T11:55:46.768Z,4.97
2019-05-01T11:58:17.123Z,6.60
2019-05-01T12:00:48.870Z,7.60
2019-05-01T12:03:19.184Z,7.07
2019-05-01T12:05:49.568Z,7.90
2019-05-01T12:08:19.872Z,6.40
2019-05-01T12:13:53.327Z,6.40
2019-05-01T12:16:42.664Z,6.33
2019-05-01T12:19:13.059Z,7.80
2019-05-01T12:21:43.386Z,5.93
2019-05-01T12:24:13.710Z,6.13
2019-05-01T12:26:44.137Z,6.60
2019-05-01T12:29:15.478Z,7.40
2019-05-01T12:31:58.507Z,6.93
2019-05-01T12:34:28.862Z,6.63
2019-05-01T12:40:15.822Z,7.00
2019-05-01T12:42:46.112Z,6.80
2019-05-01T12:45:18.146Z,5.33
2019-05-01T12:47:51.065Z,6.07
2019-05-01T12:50:22.437Z,6.70
2019-05-01T12:56:39.106Z,5.83
2019-05-01T12:59:09.389Z,5.83
2019-05-01T13:01:40.772Z,5.57
2019-05-01T13:04:11.086Z,6.10
2019-05-01T13:06:49.230Z,7.30
2019-05-01T13:09:36.492Z,6.97
2019-05-01T13:12:07.386Z,6.10
2019-05-01T13:14:37.770Z,7.33
2019-05-01T13:17:08.078Z,5.50
2019-05-01T13:19:38.475Z,6.70
2019-05-01T13:22:09.074Z,5.53
2019-05-01T13:24:50.070Z,5.33
2019-05-01T13:27:35.832Z,5.50
2019-05-01T13:30:18.837Z,5.70
2019-05-01T13:32:50.886Z,6.87
2019-05-01T13:35:21.232Z,5.50
2019-05-01T13:37:51.524Z,6.30
2019-05-01T13:40:22.059Z,6.80
2019-05-01T13:42:53.908Z,4.93
2019-05-01T13:48:24.458Z,6.73
2019-05-01T13:50:54.798Z,5.13
2019-05-01T13:53:25.149Z,5.37
2019-05-01T13:55:55.516Z,6.13
2019-05-01T13:58:25.944Z,4.97
2019-05-01T14:00:56.281Z,5.10
2019-05-01T14:03:26.656Z,6.50
2019-05-01T14:05:57.566Z,6.10
2019-05-01T14:08:28.862Z,4.43
2019-05-01T14:10:59.154Z,6.23
2019-05-01T14:13:30.460Z,4.70
2019-05-01T14:16:00.804Z,5.93
2019-05-01T14:18:31.112Z,5.37
2019-05-01T14:21:08.480Z,5.67
2019-05-01T14:24:10.467Z,5.67
2019-05-01T14:26:41.196Z,6.17
2019-05-01T14:29:11.520Z,6.30
2019-05-01T14:31:41.883Z,4.47
2019-05-01T14:34:12.188Z,5.00
2019-05-01T14:36:42.540Z,5.00
2019-05-01T14:39:12.884Z,5.10
2019-05-01T14:41:43.176Z,5.57
2019-05-01T14:44:14.433Z,6.20
2019-05-01T14:46:44.713Z,7.13
2019-05-01T14:49:15.073Z,4.93
2019-05-01T14:51:45.377Z,5.63
2019-05-01T14:54:16.798Z,3.93
2019-05-01T14:56:47.161Z,4.97
2019-05-01T14:59:17.489Z,3.80
2019-05-01T15:01:53.720Z,4.90
2019-05-01T15:04:24.030Z,4.33
2019-05-01T15:06:54.397Z,4.90
2019-05-01T15:09:37.869Z,4.40
2019-05-01T15:12:19.971Z,5.17
2019-05-01T15:15:00.650Z,5.30
2019-05-01T15:17:52.800Z,4.90
2019-05-01T15:20:23.080Z,4.03
2019-05-01T15:22:53.423Z,4.30
2019-05-01T15:25:23.771Z,4.10
2019-05-01T15:27:54.153Z,5.40
2019-05-01T15:30:24.468Z,4.50
2019-05-01T15:32:54.866Z,5.00
2019-05-01T15:35:25.182Z,4.27
2019-05-01T15:37:57.307Z,4.30
2019-05-01T15:40:43.602Z,5.50
2019-05-01T15:43:29.391Z,4.80
2019-05-01T15:45:59.701Z,5.60
2019-05-01T15:48:31.336Z,4.83
2019-05-01T15:51:01.660Z,5.33
2019-05-01T15:53:32.024Z,5.03
2019-05-01T15:56:02.337Z,6.73
2019-05-01T15:58:33.711Z,5.87
2019-05-01T16:01:04.368Z,6.23
2019-05-01T16:03:34.726Z,6.40
2019-05-01T16:06:05.021Z,6.20
2019-05-01T16:08:35.366Z,4.93
2019-05-01T16:11:12.822Z,7.10
2019-05-01T16:13:43.147Z,7.13
2019-05-01T16:16:13.464Z,6.30
2019-05-01T16:18:45.017Z,6.53
2019-05-01T16:21:15.340Z,7.33
2019-05-01T16:23:48.427Z,6.70
2019-05-01T16:26:18.768Z,5.40
2019-05-01T16:28:49.141Z,7.30
2019-05-01T16:31:19.462Z,5.40
2019-05-01T16:33:49.796Z,6.00
2019-05-01T16:36:20.460Z,5.40
2019-05-01T16:39:04.616Z,5.20
2019-05-01T16:41:35.403Z,5.73
2019-05-01T16:44:05.817Z,5.77
2019-05-01T16:46:49.071Z,4.50
2019-05-01T16:49:19.794Z,4.73
2019-05-01T16:51:50.136Z,5.20
2019-05-01T16:54:20.458Z,5.37
2019-05-01T16:56:50.784Z,5.70
2019-05-01T16:59:21.086Z,6.03
2019-05-01T17:02:09.848Z,6.47
2019-05-01T17:04:48.688Z,6.97
2019-05-01T17:07:53.322Z,6.00
2019-05-01T17:10:33.705Z,9.10
2019-05-01T17:13:06.608Z,6.60
2019-05-01T17:15:41.885Z,5.13
2019-05-01T17:18:12.358Z,6.17
2019-05-01T17:20:43.181Z,8.07
2019-05-01T17:23:14.893Z,6.13
2019-05-01T17:25:45.279Z,6.13
2019-05-01T17:28:16.189Z,6.80
2019-05-01T17:30:52.264Z,6.03
2019-05-01T17:33:22.681Z,7.43
2019-05-01T17:35:52.966Z,5.80
2019-05-01T17:38:23.676Z,7.80
2019-05-01T17:40:53.986Z,6.33
2019-05-01T17:43:24.351Z,6.50
2019-05-01T17:45:55.770Z,5.27
2019-05-01T17:48:28.843Z,7.37
2019-05-01T17:51:00.523Z,7.63
2019-05-01T17:53:31.952Z,4.63
2019-05-01T17:56:02.313Z,5.33
2019-05-01T17:58:33.697Z,6.20
2019-05-01T18:01:27.447Z,6.83
2019-05-01T18:04:12.580Z,5.47
2019-05-01T18:06:46.609Z,6.47
2019-05-01T18:09:17.990Z,5.87
2019-05-01T18:11:52.260Z,5.80
2019-05-01T18:14:20.252Z,5.73
2019-05-01T18:16:50.956Z,6.57
2019-05-01T18:19:21.305Z,4.80
2019-05-01T18:22:00.390Z,4.60
2019-05-01T18:24:48.531Z,5.80
2019-05-01T18:27:36.454Z,5.27
2019-05-01T18:30:10.277Z,7.20
2019-05-01T18:32:47.462Z,4.30
2019-05-01T18:35:16.080Z,5.83
2019-05-01T18:38:01.443Z,5.80
2019-05-01T18:40:56.818Z,6.80
2019-05-01T18:43:31.811Z,6.07
2019-05-01T18:46:13.424Z,6.50
2019-05-01T18:48:44.218Z,7.67
2019-05-01T18:51:16.368Z,10.30
2019-05-01T18:53:48.138Z,5.87
2019-05-01T18:56:18.494Z,6.37
2019-05-01T18:58:48.806Z,5.20
2019-05-01T19:01:19.515Z,6.53
2019-05-01T19:03:50.302Z,5.83
2019-05-01T19:06:20.680Z,5.83
2019-05-01T19:08:51.122Z,5.60
2019-05-01T19:11:21.529Z,6.33
2019-05-01T19:13:51.828Z,9.03
2019-05-01T19:16:22.181Z,7.43
2019-05-01T19:18:52.553Z,7.50
2019-05-01T19:21:24.502Z,5.93
2019-05-01T19:23:54.835Z,7.70
2019-05-01T19:26:25.643Z,7.63
2019-05-01T19:28:56.047Z,6.70
2019-05-01T19:31:26.605Z,5.70
2019-05-01T19:33:57.077Z,6.20
2019-05-01T19:36:27.482Z,6.23
2019-05-01T19:39:11.640Z,5.60
2019-05-01T19:41:43.759Z,6.90
2019-05-01T19:44:13.944Z,8.33
2019-05-01T19:46:45.511Z,7.37
2019-05-01T19:49:15.920Z,8.87
2019-05-01T19:51:46.283Z,8.77
2019-05-01T19:54:16.705Z,6.33
2019-05-01T19:56:47.038Z,7.50
2019-05-01T19:59:17.374Z,7.93
2019-05-01T20:01:49.546Z,6.83
2019-05-01T20:04:20.814Z,7.07
2019-05-01T20:06:51.617Z,8.60
2019-05-01T20:09:21.994Z,7.00
2019-05-01T20:11:52.417Z,7.28
2019-05-01T20:14:22.784Z,7.70
2019-05-01T20:16:53.130Z,7.23
2019-05-01T20:19:23.762Z,7.87
2019-05-01T20:21:54.146Z,7.30
2019-05-01T20:24:25.687Z,7.13
2019-05-01T20:26:56.027Z,6.13
2019-05-01T20:29:27.468Z,7.97
2019-05-01T20:31:57.971Z,6.87
2019-05-01T20:34:28.380Z,6.80
2019-05-01T20:36:58.786Z,6.50
2019-05-01T20:39:29.057Z,8.27
2019-05-01T20:41:59.490Z,6.97
2019-05-01T20:44:31.413Z,7.13
2019-05-01T20:47:02.581Z,8.00
2019-05-01T20:49:36.528Z,5.10
2019-05-01T20:52:05.743Z,5.70
2019-05-01T20:54:37.530Z,6.20
2019-05-01T20:57:21.040Z,5.60
2019-05-01T20:59:48.795Z,6.50
2019-05-01T21:02:19.508Z,5.03
2019-05-01T21:05:07.634Z,5.93
2019-05-01T21:07:43.108Z,4.40
2019-05-01T21:10:24.267Z,5.40
2019-05-01T21:12:45.480Z,6.33
2019-05-01T21:15:19.974Z,5.17
2019-05-01T21:17:49.277Z,4.33
2019-05-01T21:20:20.033Z,4.77
2019-05-01T21:22:50.457Z,5.70
2019-05-01T21:25:21.178Z,4.90
2019-05-01T21:27:51.589Z,5.13
2019-05-01T21:30:23.738Z,5.00
2019-05-01T21:32:54.262Z,4.17
2019-05-01T21:35:24.659Z,6.07
2019-05-01T21:37:55.060Z,5.40
2019-05-01T21:40:37.741Z,6.43
2019-05-01T21:42:59.355Z,4.53
2019-05-01T21:45:29.662Z,5.47
2019-05-01T21:48:03.116Z,6.07
2019-05-01T21:50:33.654Z,5.20
2019-05-01T21:53:06.848Z,4.67
2019-05-01T21:55:37.459Z,5.10
2019-05-01T21:58:08.076Z,6.07
2019-05-01T22:00:40.595Z,5.80
2019-05-01T22:03:16.684Z,4.40
2019-05-01T22:05:47.789Z,5.93
2019-05-01T22:08:18.137Z,4.40
2019-05-01T22:10:52.210Z,6.37
2019-05-01T22:13:24.279Z,5.60
2019-05-01T22:15:58.856Z,5.40
2019-05-01T22:18:34.163Z,5.57
2019-05-01T22:21:19.246Z,4.67
2019-05-01T22:24:12.426Z,7.03
2019-05-01T22:26:46.448Z,4.87
2019-05-01T22:29:18.395Z,5.10
2019-05-01T22:32:15.889Z,6.67
2019-05-01T22:34:50.275Z,6.33
2019-05-01T22:37:20.632Z,6.13
2019-05-01T22:39:56.384Z,6.93
2019-05-01T22:42:28.529Z,6.37
2019-05-01T22:44:59.091Z,5.50
2019-05-01T22:47:29.744Z,6.07
2019-05-01T22:50:00.032Z,6.37
2019-05-01T22:52:30.404Z,5.67
2019-05-01T22:55:00.713Z,6.67
2019-05-01T22:57:31.110Z,4.63
2019-05-01T23:00:01.915Z,5.40
2019-05-01T23:02:41.535Z,5.13
2019-05-01T23:05:12.134Z,9.17
2019-05-01T23:07:42.479Z,7.40
2019-05-01T23:10:13.184Z,8.23
2019-05-01T23:12:43.500Z,6.40
2019-05-01T23:15:19.455Z,6.33
2019-05-01T23:17:49.856Z,10.30
2019-05-01T23:20:20.650Z,7.03
2019-05-01T23:22:51.004Z,6.43
2019-05-01T23:25:21.390Z,7.43
2019-05-01T23:27:52.308Z,7.90
2019-05-01T23:30:23.052Z,8.10
2019-05-01T23:32:54.728Z,8.90
2019-05-01T23:35:26.107Z,8.23
2019-05-01T23:37:57.922Z,7.43
2019-05-01T23:40:28.249Z,9.83
2019-05-01T23:42:58.684Z,9.17
2019-05-01T23:45:29.020Z,9.23
2019-05-01T23:47:59.393Z,10.83
2019-05-01T23:50:29.775Z,13.20
2019-05-01T23:53:01.699Z,10.93
2019-05-01T23:55:32.097Z,14.03
2019-05-01T23:58:02.402Z,10.77
